Terminal Aerodrome Forecast
Issued by NWS

Home | Current Version | Previous Version | Text Only | Print | Product List | Glossary On
Versions: 1 2 3 4 5 6 7 8 9 10 11 12 13 14 15 16 17 18 19 20 21 22 23 24 25 26 27 28 29 30 31
000
FTUS45 KGJT 271125
TAFDRO
TAF
KDRO 271125Z 2712/2812 24004KT P6SM VCSH OVC006
      TEMPO 2712/2714 3SM -SHRA BR SCT006 BKN020
     FM271400 VRB05KT P6SM VCSH FEW025 SCT050 OVC070
     FM271700 25010G17KT P6SM VCTS SCT060CB BKN080
     FM280200 34006KT P6SM SCT080 BKN110=

USA.gov is the U.S. government's official web portal to all federal, state and local government web resources and services.